Time;durP1;ratioP1;P1;durP2;ratioP2;P2;SDS_P1;SDS_P2;PMS_P1;PMS_P2;Temp;Humidity;BMP_temperature;BMP_pressure;BME280_temperature;BME280_humidity;BME280_pressure;Samples;Min_cycle;Max_cycle;Signal;HPM_P1;HPM_P2
2022/03/22 00:00:19;;;;;;;;;14.25;14.25;;;;;;;;5074275;28;46323;-74
2022/03/22 00:02:45;;;;;;;;;16.25;13.50;;;;;;;;5077427;27;45558;-74
2022/03/22 00:05:10;;;;;;;;;14.50;14.50;;;;;;;;5074304;28;45217;-74
2022/03/22 00:07:35;;;;;;;;;16.75;15.25;;;;;;;;5076303;28;45413;-74
2022/03/22 00:10:00;;;;;;;;;14.75;12.25;;;;;;;;5074772;28;46066;-74
2022/03/22 00:12:26;;;;;;;;;13.75;13.75;;;;;;;;5073227;28;45285;-74
2022/03/22 00:14:51;;;;;;;;;15.75;13.75;;;;;;;;5072930;28;45272;-74
2022/03/22 00:17:16;;;;;;;;;13.00;12.25;;;;;;;;5073181;28;45480;-74
2022/03/22 00:19:41;;;;;;;;;13.25;13.00;;;;;;;;5074694;28;45437;-74
2022/03/22 00:22:07;;;;;;;;;16.25;14.75;;;;;;;;5076233;28;45383;-74
2022/03/22 00:24:33;;;;;;;;;14.25;13.25;;;;;;;;5074342;28;45491;-74
2022/03/22 00:26:58;;;;;;;;;16.00;12.00;;;;;;;;5071443;28;45360;-74
2022/03/22 00:29:23;;;;;;;;;13.75;13.00;;;;;;;;5071645;28;45515;-73
2022/03/22 00:31:48;;;;;;;;;15.00;13.25;;;;;;;;5074278;28;45398;-74
2022/03/22 00:34:14;;;;;;;;;14.00;12.25;;;;;;;;5073977;28;45334;-73
2022/03/22 00:36:39;;;;;;;;;14.25;12.25;;;;;;;;5072977;28;45400;-74
2022/03/22 00:39:05;;;;;;;;;15.25;13.75;;;;;;;;5072888;28;45394;-74
2022/03/22 00:41:30;;;;;;;;;14.50;14.00;;;;;;;;5071704;28;45423;-74
2022/03/22 00:43:55;;;;;;;;;17.00;16.00;;;;;;;;5074072;28;45338;-74
2022/03/22 00:46:20;;;;;;;;;15.75;12.75;;;;;;;;5076179;28;45382;-74
2022/03/22 00:48:47;;;;;;;;;12.25;12.25;;;;;;;;5055985;28;46347;-74
2022/03/22 00:51:13;;;;;;;;;14.00;13.00;;;;;;;;5073068;28;45526;-74
2022/03/22 00:53:39;;;;;;;;;14.25;13.25;;;;;;;;5073275;28;45446;-74
2022/03/22 00:56:04;;;;;;;;;18.00;14.00;;;;;;;;5057370;28;45363;-74
2022/03/22 00:58:30;;;;;;;;;15.75;12.00;;;;;;;;5075817;28;46357;-74
2022/03/22 01:00:55;;;;;;;;;13.00;12.25;;;;;;;;5073873;28;45273;-74
2022/03/22 01:03:21;;;;;;;;;14.50;11.75;;;;;;;;5072500;28;45360;-74
2022/03/22 01:05:47;;;;;;;;;13.75;13.75;;;;;;;;5073816;28;45465;-74
2022/03/22 01:08:14;;;;;;;;;15.50;14.00;;;;;;;;5071979;28;46966;-74
2022/03/22 01:10:41;;;;;;;;;14.25;14.25;;;;;;;;5074251;28;45453;-74
2022/03/22 01:13:07;;;;;;;;;15.50;14.75;;;;;;;;5073396;28;45444;-74
2022/03/22 01:15:33;;;;;;;;;14.75;14.25;;;;;;;;5073487;28;45293;-74
2022/03/22 01:18:05;;;;;;;;;13.75;13.75;;;;;;;;5072553;28;45661;-74
2022/03/22 01:20:31;;;;;;;;;11.25;11.00;;;;;;;;5073544;28;45469;-74
2022/03/22 01:22:57;;;;;;;;;14.00;14.00;;;;;;;;5077445;27;45390;-74
2022/03/22 01:25:27;;;;;;;;;15.75;13.25;;;;;;;;5076547;27;45454;-74
2022/03/22 01:27:52;;;;;;;;;14.25;12.75;;;;;;;;5070940;28;47039;-74
2022/03/22 01:30:19;;;;;;;;;13.50;13.50;;;;;;;;5073264;28;45431;-74
2022/03/22 01:32:45;;;;;;;;;14.00;12.25;;;;;;;;5073073;28;45423;-74
2022/03/22 01:35:10;;;;;;;;;12.75;12.00;;;;;;;;5071980;28;45352;-74
2022/03/22 01:37:36;;;;;;;;;14.25;13.25;;;;;;;;5074861;28;45498;-74
2022/03/22 01:40:02;;;;;;;;;12.75;12.50;;;;;;;;5073853;28;45939;-74
2022/03/22 01:42:27;;;;;;;;;13.00;12.00;;;;;;;;5072665;28;45355;-74
2022/03/22 01:44:52;;;;;;;;;13.00;12.75;;;;;;;;5071951;28;45397;-74
2022/03/22 01:47:19;;;;;;;;;16.00;14.25;;;;;;;;5064685;27;45806;-74
2022/03/22 01:49:44;;;;;;;;;16.25;15.50;;;;;;;;5064419;28;45236;-74
2022/03/22 01:52:16;;;;;;;;;12.75;12.75;;;;;;;;5050194;28;45255;-74
2022/03/22 01:54:42;;;;;;;;;15.25;13.50;;;;;;;;5042784;28;45915;-74
2022/03/22 01:57:07;;;;;;;;;13.50;12.00;;;;;;;;5041117;28;46344;-74
2022/03/22 01:59:33;;;;;;;;;15.00;12.25;;;;;;;;5051396;28;45311;-74
2022/03/22 02:07:47;;;;;;;;;13.00;13.00;;;;;;;;5968734;22;45971;-73
2022/03/22 02:10:12;;;;;;;;;11.00;11.00;;;;;;;;5129489;22;45535;-73
2022/03/22 02:12:38;;;;;;;;;11.00;11.00;;;;;;;;5080035;27;45465;-73
2022/03/22 02:15:04;;;;;;;;;12.75;12.00;;;;;;;;5098262;27;45234;-73
2022/03/22 02:17:29;;;;;;;;;15.75;12.25;;;;;;;;5098575;27;45323;-73
2022/03/22 02:19:55;;;;;;;;;17.75;12.75;;;;;;;;5099003;27;45299;-73
2022/03/22 02:22:23;;;;;;;;;12.25;11.25;;;;;;;;5098676;27;45270;-74
2022/03/22 02:24:48;;;;;;;;;10.50;10.00;;;;;;;;5098233;27;45464;-73
2022/03/22 02:27:13;;;;;;;;;16.00;14.50;;;;;;;;5098438;27;46034;-74
2022/03/22 02:29:38;;;;;;;;;12.00;11.00;;;;;;;;5098478;27;45318;-73
2022/03/22 02:32:04;;;;;;;;;11.00;11.00;;;;;;;;5098640;27;45393;-73
2022/03/22 02:34:30;;;;;;;;;15.25;12.50;;;;;;;;5098717;27;45509;-74
2022/03/22 02:36:56;;;;;;;;;12.75;11.25;;;;;;;;5098003;27;45447;-74
2022/03/22 02:39:21;;;;;;;;;16.00;13.25;;;;;;;;5093922;27;45422;-73
2022/03/22 02:41:48;;;;;;;;;13.25;12.25;;;;;;;;5085543;27;45569;-74
2022/03/22 02:44:14;;;;;;;;;13.75;12.50;;;;;;;;5096839;27;45376;-73
2022/03/22 02:46:39;;;;;;;;;12.25;12.25;;;;;;;;5096541;27;45486;-73
2022/03/22 02:49:06;;;;;;;;;14.25;14.25;;;;;;;;5096222;27;45512;-73
2022/03/22 02:51:31;;;;;;;;;14.75;13.50;;;;;;;;5096822;27;45350;-74
2022/03/22 02:53:57;;;;;;;;;12.25;12.00;;;;;;;;5095846;27;45428;-74
2022/03/22 02:56:22;;;;;;;;;12.00;12.00;;;;;;;;5095356;27;45366;-74
2022/03/22 02:58:47;;;;;;;;;16.00;14.75;;;;;;;;5098204;27;45407;-73
2022/03/22 03:01:12;;;;;;;;;10.75;10.25;;;;;;;;5096224;27;45463;-73
2022/03/22 03:03:37;;;;;;;;;13.00;12.00;;;;;;;;5095994;27;45442;-74
2022/03/22 03:06:03;;;;;;;;;11.00;10.00;;;;;;;;5094292;27;45808;-73
2022/03/22 03:08:28;;;;;;;;;12.00;10.25;;;;;;;;5093335;27;45579;-73
2022/03/22 03:10:53;;;;;;;;;13.50;12.00;;;;;;;;5098165;27;45341;-73
2022/03/22 03:13:19;;;;;;;;;11.25;11.00;;;;;;;;5093619;27;45557;-73
2022/03/22 03:15:44;;;;;;;;;12.75;11.50;;;;;;;;5093856;27;46160;-73
2022/03/22 03:18:09;;;;;;;;;11.25;11.25;;;;;;;;5095810;27;45608;-73
2022/03/22 03:20:35;;;;;;;;;12.50;11.50;;;;;;;;5094969;27;45462;-73
2022/03/22 03:23:00;;;;;;;;;13.25;13.25;;;;;;;;5097159;27;45326;-73
2022/03/22 03:25:25;;;;;;;;;12.25;10.75;;;;;;;;5096422;27;46182;-74
2022/03/22 03:27:50;;;;;;;;;9.25;9.25;;;;;;;;5095181;27;45795;-74
2022/03/22 03:30:16;;;;;;;;;12.50;10.50;;;;;;;;5094139;27;45459;-73
2022/03/22 03:32:41;;;;;;;;;13.00;11.00;;;;;;;;5095432;27;45416;-73
2022/03/22 03:35:07;;;;;;;;;12.00;12.00;;;;;;;;5096361;27;45679;-74
2022/03/22 03:37:35;;;;;;;;;15.25;11.75;;;;;;;;5094314;27;45442;-73
2022/03/22 03:40:00;;;;;;;;;11.50;11.50;;;;;;;;5093835;27;45369;-73
2022/03/22 03:42:26;;;;;;;;;13.25;11.75;;;;;;;;5093791;27;45433;-73
2022/03/22 03:47:35;;;;;;;;;12.00;12.00;;;;;;;;5081216;27;45355;-73
2022/03/22 03:50:05;;;;;;;;;11.75;11.00;;;;;;;;5096847;27;45283;-74
2022/03/22 03:52:32;;;;;;;;;13.50;11.50;;;;;;;;5078067;27;45665;-74
2022/03/22 03:54:58;;;;;;;;;10.25;10.25;;;;;;;;5094815;27;46565;-74
2022/03/22 03:57:24;;;;;;;;;9.75;9.25;;;;;;;;5088918;27;45458;-74
2022/03/22 03:59:49;;;;;;;;;10.25;10.00;;;;;;;;5095005;27;45943;-74
2022/03/22 04:02:16;;;;;;;;;12.50;11.75;;;;;;;;5096116;27;45326;-74
2022/03/22 04:04:42;;;;;;;;;12.50;9.25;;;;;;;;5097113;27;46214;-74
2022/03/22 04:07:08;;;;;;;;;15.25;12.00;;;;;;;;5094481;27;45284;-73
2022/03/22 04:09:34;;;;;;;;;11.00;11.00;;;;;;;;5094101;27;45532;-73
2022/03/22 04:12:00;;;;;;;;;12.00;10.75;;;;;;;;5092572;27;45433;-73
2022/03/22 04:14:25;;;;;;;;;10.25;10.25;;;;;;;;5092508;27;47068;-74
2022/03/22 04:16:50;;;;;;;;;12.75;11.25;;;;;;;;5097006;27;45413;-74
2022/03/22 04:19:16;;;;;;;;;10.50;10.00;;;;;;;;5094513;27;45349;-74
2022/03/22 04:21:41;;;;;;;;;13.75;11.00;;;;;;;;5094578;27;45531;-73
2022/03/22 04:24:07;;;;;;;;;14.00;11.50;;;;;;;;5091396;27;46743;-73
2022/03/22 04:26:34;;;;;;;;;15.50;11.75;;;;;;;;5094991;27;45553;-74
2022/03/22 04:34:26;;;;;;;;;10.25;10.00;;;;;;;;5094638;27;46923;-74
2022/03/22 04:36:57;;;;;;;;;14.25;13.00;;;;;;;;5093954;27;45437;-74
2022/03/22 04:39:24;;;;;;;;;11.25;9.50;;;;;;;;5094485;27;45358;-73
2022/03/22 04:41:50;;;;;;;;;11.50;11.50;;;;;;;;5092050;27;45183;-74
2022/03/22 04:44:16;;;;;;;;;11.25;10.00;;;;;;;;5094513;27;46516;-74
2022/03/22 04:46:42;;;;;;;;;9.50;9.25;;;;;;;;5095149;27;45334;-74
2022/03/22 04:49:07;;;;;;;;;11.75;10.00;;;;;;;;5094121;27;45608;-73
2022/03/22 04:57:02;;;;;;;;;11.25;10.25;;;;;;;;5092771;27;45359;-74
2022/03/22 04:59:27;;;;;;;;;9.50;9.25;;;;;;;;5092932;27;45385;-73
2022/03/22 05:01:52;;;;;;;;;12.25;9.00;;;;;;;;5096747;27;45519;-74
2022/03/22 05:04:18;;;;;;;;;11.75;11.75;;;;;;;;5092139;27;45422;-74
2022/03/22 05:06:43;;;;;;;;;10.00;10.00;;;;;;;;5092284;27;45251;-73
2022/03/22 05:09:10;;;;;;;;;12.25;11.25;;;;;;;;5093868;27;45500;-73
2022/03/22 05:11:35;;;;;;;;;12.75;11.00;;;;;;;;5094104;27;45405;-73
2022/03/22 05:14:01;;;;;;;;;11.50;10.25;;;;;;;;5092460;27;47275;-74
2022/03/22 05:16:26;;;;;;;;;10.75;9.75;;;;;;;;5092551;27;45428;-73
2022/03/22 05:18:52;;;;;;;;;9.75;9.75;;;;;;;;5093517;27;45599;-74
2022/03/22 05:21:17;;;;;;;;;10.50;9.25;;;;;;;;5092228;27;45459;-74
2022/03/22 05:23:42;;;;;;;;;11.50;8.75;;;;;;;;5093713;27;46390;-74
2022/03/22 05:26:08;;;;;;;;;12.25;10.00;;;;;;;;5094488;27;45318;-74
2022/03/22 05:28:33;;;;;;;;;9.25;9.25;;;;;;;;5095584;27;45411;-74
2022/03/22 05:30:58;;;;;;;;;12.00;9.75;;;;;;;;5093657;27;45762;-73
2022/03/22 05:33:23;;;;;;;;;12.00;9.00;;;;;;;;5091594;27;46518;-73
2022/03/22 05:35:49;;;;;;;;;10.25;10.00;;;;;;;;5093390;27;45388;-73
2022/03/22 05:38:14;;;;;;;;;10.25;10.25;;;;;;;;5097098;27;45567;-73
2022/03/22 05:40:40;;;;;;;;;11.75;11.25;;;;;;;;5099849;27;45443;-73
2022/03/22 05:43:05;;;;;;;;;11.50;9.50;;;;;;;;5094753;27;47037;-74
2022/03/22 05:45:31;;;;;;;;;12.00;11.00;;;;;;;;5095441;27;45440;-73
2022/03/22 05:47:58;;;;;;;;;9.50;9.25;;;;;;;;5097208;27;45372;-74
2022/03/22 05:50:23;;;;;;;;;10.25;9.25;;;;;;;;5084604;27;45406;-73
2022/03/22 05:52:49;;;;;;;;;11.25;9.25;;;;;;;;5099189;27;46362;-73
2022/03/22 05:55:14;;;;;;;;;12.25;9.75;;;;;;;;5095916;27;45383;-74
2022/03/22 05:57:40;;;;;;;;;9.00;9.00;;;;;;;;5095930;27;45499;-74
2022/03/22 06:00:06;;;;;;;;;9.75;9.75;;;;;;;;5096041;27;45373;-73
2022/03/22 06:02:31;;;;;;;;;9.50;8.00;;;;;;;;5078901;27;47034;-74
2022/03/22 06:04:57;;;;;;;;;9.00;9.00;;;;;;;;5098295;27;45263;-73
2022/03/22 06:07:22;;;;;;;;;11.50;8.50;;;;;;;;5096014;27;45458;-74
2022/03/22 06:09:47;;;;;;;;;9.00;9.00;;;;;;;;5097267;27;45409;-74
2022/03/22 06:12:15;;;;;;;;;10.25;9.50;;;;;;;;5095210;27;45440;-74
2022/03/22 06:14:41;;;;;;;;;9.75;9.00;;;;;;;;5096992;27;45334;-74
2022/03/22 06:17:06;;;;;;;;;9.50;8.00;;;;;;;;5097381;27;45362;-74
2022/03/22 06:19:32;;;;;;;;;8.25;8.25;;;;;;;;5098050;27;45426;-74
2022/03/22 06:21:57;;;;;;;;;11.00;10.00;;;;;;;;5095562;27;47095;-73
2022/03/22 06:24:22;;;;;;;;;12.00;10.25;;;;;;;;5097148;27;45343;-74
2022/03/22 06:26:48;;;;;;;;;10.00;10.00;;;;;;;;5095624;27;45433;-73
2022/03/22 06:29:13;;;;;;;;;8.25;7.50;;;;;;;;5079142;27;45438;-73
2022/03/22 06:31:38;;;;;;;;;9.00;8.50;;;;;;;;5098374;27;47187;-73
2022/03/22 06:34:04;;;;;;;;;10.25;10.25;;;;;;;;5095334;27;45491;-74
2022/03/22 06:36:29;;;;;;;;;13.25;10.25;;;;;;;;5096877;27;45426;-74
2022/03/22 06:38:54;;;;;;;;;10.50;8.50;;;;;;;;5094888;27;45602;-74
2022/03/22 06:41:20;;;;;;;;;7.50;7.50;;;;;;;;5095961;27;45327;-73
2022/03/22 06:43:45;;;;;;;;;11.75;10.50;;;;;;;;5098656;27;45462;-74
2022/03/22 06:46:10;;;;;;;;;11.25;9.00;;;;;;;;5096322;27;45385;-74
2022/03/22 06:48:36;;;;;;;;;11.00;9.75;;;;;;;;5095443;27;45461;-74
2022/03/22 06:51:01;;;;;;;;;9.00;9.00;;;;;;;;5096045;27;45936;-70
2022/03/22 06:53:26;;;;;;;;;10.00;9.00;;;;;;;;5096243;27;45551;-70
2022/03/22 06:55:52;;;;;;;;;10.00;10.00;;;;;;;;5098309;27;45353;-73
2022/03/22 06:58:21;;;;;;;;;10.00;9.75;;;;;;;;5095679;27;45626;-71
2022/03/22 07:00:46;;;;;;;;;12.50;8.75;;;;;;;;5094044;27;46586;-69
2022/03/22 07:03:12;;;;;;;;;10.50;9.75;;;;;;;;5088816;27;45479;-69
2022/03/22 07:05:37;;;;;;;;;9.50;8.50;;;;;;;;5083833;27;45412;-67
2022/03/22 07:08:02;;;;;;;;;12.00;12.00;;;;;;;;5096471;27;45458;-69
2022/03/22 07:10:28;;;;;;;;;8.25;8.25;;;;;;;;5090464;27;46072;-69
2022/03/22 07:12:57;;;;;;;;;10.00;10.00;;;;;;;;5090451;27;45354;-69
2022/03/22 07:15:26;;;;;;;;;9.00;9.00;;;;;;;;5092054;27;45422;-69
2022/03/22 07:17:52;;;;;;;;;8.75;8.25;;;;;;;;5094160;27;45476;-70
2022/03/22 07:20:18;;;;;;;;;13.00;10.75;;;;;;;;5096304;27;46350;-70
2022/03/22 07:22:43;;;;;;;;;10.25;9.50;;;;;;;;5097550;27;45387;-69
2022/03/22 07:25:09;;;;;;;;;13.75;12.00;;;;;;;;5096787;27;45530;-68
2022/03/22 07:27:34;;;;;;;;;10.00;9.00;;;;;;;;5095428;27;45279;-70
2022/03/22 07:30:01;;;;;;;;;6.75;5.75;;;;;;;;5094742;27;46081;-69
2022/03/22 07:32:27;;;;;;;;;9.75;9.75;;;;;;;;5095229;27;45513;-69
2022/03/22 07:34:52;;;;;;;;;9.50;9.50;;;;;;;;5097584;27;45407;-68
2022/03/22 07:37:17;;;;;;;;;11.25;9.75;;;;;;;;5095552;27;45271;-67
2022/03/22 07:39:43;;;;;;;;;9.50;9.50;;;;;;;;5093987;27;46299;-74
2022/03/22 07:42:09;;;;;;;;;8.50;7.25;;;;;;;;5095193;27;45609;-71
2022/03/22 07:44:34;;;;;;;;;12.25;11.50;;;;;;;;5082171;27;45634;-71
2022/03/22 07:46:59;;;;;;;;;8.50;8.25;;;;;;;;5097112;27;46839;-71
2022/03/22 07:54:52;;;;;;;;;9.75;9.75;;;;;;;;5093318;27;45398;-71
2022/03/22 07:57:17;;;;;;;;;8.50;8.50;;;;;;;;5095017;27;45408;-71
2022/03/22 07:59:42;;;;;;;;;9.25;9.00;;;;;;;;5093191;27;47259;-71
2022/03/22 08:02:08;;;;;;;;;6.75;5.75;;;;;;;;5095725;27;45322;-71
2022/03/22 08:04:33;;;;;;;;;10.25;8.00;;;;;;;;5094997;27;45422;-71
2022/03/22 08:06:58;;;;;;;;;10.00;8.75;;;;;;;;5095138;27;45459;-71
2022/03/22 08:09:23;;;;;;;;;11.50;9.00;;;;;;;;5093688;27;45477;-73
2022/03/22 08:11:50;;;;;;;;;10.75;10.75;;;;;;;;5094543;27;45544;-71
2022/03/22 08:14:15;;;;;;;;;11.75;9.00;;;;;;;;5094611;27;45482;-71
2022/03/22 08:16:41;;;;;;;;;11.00;10.00;;;;;;;;5096995;27;45293;-71
2022/03/22 08:19:07;;;;;;;;;9.25;8.25;;;;;;;;5092307;27;47262;-71
2022/03/22 08:21:35;;;;;;;;;9.75;8.00;;;;;;;;5092156;27;45532;-70
2022/03/22 08:24:00;;;;;;;;;10.50;9.00;;;;;;;;5091865;27;45448;-71
2022/03/22 08:26:27;;;;;;;;;10.00;8.00;;;;;;;;5093494;27;45427;-71
2022/03/22 08:28:52;;;;;;;;;9.00;8.75;;;;;;;;5096539;27;46872;-71
2022/03/22 08:31:18;;;;;;;;;9.75;9.25;;;;;;;;5094392;27;45305;-71
2022/03/22 08:33:43;;;;;;;;;7.25;7.25;;;;;;;;5093867;27;45491;-71
2022/03/22 08:36:08;;;;;;;;;9.50;9.25;;;;;;;;5094455;27;45459;-71
2022/03/22 08:38:33;;;;;;;;;11.75;9.25;;;;;;;;5092094;27;46089;-71
2022/03/22 08:40:59;;;;;;;;;9.00;9.00;;;;;;;;5096089;27;45412;-71
2022/03/22 08:43:27;;;;;;;;;11.00;11.00;;;;;;;;5093210;27;45437;-70
2022/03/22 08:45:53;;;;;;;;;10.50;10.50;;;;;;;;5091913;27;45481;-71
2022/03/22 08:48:18;;;;;;;;;9.50;9.00;;;;;;;;5092449;27;46161;-71
2022/03/22 08:50:44;;;;;;;;;11.00;9.25;;;;;;;;5092211;27;45696;-71
2022/03/22 08:53:10;;;;;;;;;8.50;7.00;;;;;;;;5094963;27;45324;-71
2022/03/22 08:55:36;;;;;;;;;11.00;8.00;;;;;;;;5095940;27;45418;-71
2022/03/22 08:58:05;;;;;;;;;10.00;10.00;;;;;;;;5093441;27;45855;-71
2022/03/22 09:00:31;;;;;;;;;10.25;8.50;;;;;;;;5093633;27;45652;-71
2022/03/22 09:02:56;;;;;;;;;10.50;9.50;;;;;;;;5094466;27;45456;-71
2022/03/22 09:08:06;;;;;;;;;10.75;9.50;;;;;;;;5092574;27;45876;-71
2022/03/22 09:10:31;;;;;;;;;9.50;9.50;;;;;;;;5094219;27;45328;-71
2022/03/22 09:12:57;;;;;;;;;8.00;8.00;;;;;;;;5092942;27;45383;-71
2022/03/22 09:15:23;;;;;;;;;8.50;8.50;;;;;;;;5093005;27;45511;-71
2022/03/22 09:17:49;;;;;;;;;12.50;9.75;;;;;;;;5093979;27;46145;-71
2022/03/22 09:20:15;;;;;;;;;10.25;10.25;;;;;;;;5094143;27;46029;-71
2022/03/22 09:22:42;;;;;;;;;11.75;9.00;;;;;;;;5078208;27;45353;-71
2022/03/22 09:25:08;;;;;;;;;10.75;10.75;;;;;;;;5094850;27;45436;-71
2022/03/22 09:27:33;;;;;;;;;12.75;11.50;;;;;;;;5094508;27;45565;-71
2022/03/22 09:29:58;;;;;;;;;10.50;10.00;;;;;;;;5092425;27;47270;-71
2022/03/22 09:32:23;;;;;;;;;9.00;9.00;;;;;;;;5093251;27;45212;-71
2022/03/22 09:34:49;;;;;;;;;12.75;11.50;;;;;;;;5095555;27;45230;-71
2022/03/22 09:37:16;;;;;;;;;10.75;9.50;;;;;;;;5087540;27;45489;-71
2022/03/22 09:39:42;;;;;;;;;10.00;10.00;;;;;;;;5090623;27;45480;-71
2022/03/22 09:42:07;;;;;;;;;8.75;8.75;;;;;;;;5091961;27;45262;-71
2022/03/22 09:44:33;;;;;;;;;10.00;10.00;;;;;;;;5093953;27;45317;-71
2022/03/22 09:46:59;;;;;;;;;9.00;9.00;;;;;;;;5095172;27;46668;-72
2022/03/22 09:49:24;;;;;;;;;10.25;10.25;;;;;;;;5092595;27;45307;-71
2022/03/22 09:51:50;;;;;;;;;11.75;9.00;;;;;;;;5092516;27;45473;-71
2022/03/22 09:54:16;;;;;;;;;10.25;9.25;;;;;;;;5091001;27;45449;-71
2022/03/22 09:56:43;;;;;;;;;8.75;8.00;;;;;;;;5092672;27;45378;-71
2022/03/22 09:59:08;;;;;;;;;12.50;12.50;;;;;;;;5094449;27;45993;-71
2022/03/22 10:01:33;;;;;;;;;7.00;7.00;;;;;;;;5093273;27;45395;-71
2022/03/22 10:04:00;;;;;;;;;9.25;9.25;;;;;;;;5091932;27;45326;-71
2022/03/22 10:06:26;;;;;;;;;7.50;7.50;;;;;;;;5092003;27;47194;-71
2022/03/22 10:08:51;;;;;;;;;11.75;9.75;;;;;;;;5092939;27;46240;-71
2022/03/22 10:11:17;;;;;;;;;8.50;8.50;;;;;;;;5093717;27;45635;-71
2022/03/22 10:13:49;;;;;;;;;9.75;9.75;;;;;;;;5094366;27;45430;-71
2022/03/22 10:16:14;;;;;;;;;8.50;8.50;;;;;;;;5091359;27;45275;-71
2022/03/22 10:18:39;;;;;;;;;8.25;8.25;;;;;;;;5093264;27;45457;-71
2022/03/22 10:21:05;;;;;;;;;9.00;9.00;;;;;;;;5093308;27;45441;-71
2022/03/22 10:23:31;;;;;;;;;9.75;9.75;;;;;;;;5095500;27;45355;-71
2022/03/22 10:26:06;;;;;;;;;11.00;9.25;;;;;;;;5080258;27;46209;-72
2022/03/22 10:28:32;;;;;;;;;11.25;10.00;;;;;;;;5097707;27;45489;-71
2022/03/22 10:30:58;;;;;;;;;10.50;9.25;;;;;;;;5097185;27;45322;-71
2022/03/22 10:33:23;;;;;;;;;9.00;9.00;;;;;;;;5096249;27;45462;-72
2022/03/22 10:35:49;;;;;;;;;10.50;9.75;;;;;;;;5096544;27;46440;-71
2022/03/22 10:38:15;;;;;;;;;10.50;10.50;;;;;;;;5096282;27;45638;-71
2022/03/22 10:40:41;;;;;;;;;11.00;8.75;;;;;;;;5099132;27;45292;-72
2022/03/22 10:43:07;;;;;;;;;7.75;7.75;;;;;;;;5096341;27;45299;-71
2022/03/22 10:45:46;;;;;;;;;10.50;10.00;;;;;;;;5095898;27;46178;-71
2022/03/22 10:48:15;;;;;;;;;13.25;9.00;;;;;;;;5094975;27;45567;-71
2022/03/22 10:50:41;;;;;;;;;9.00;9.00;;;;;;;;5093893;27;45257;-71
2022/03/22 10:53:06;;;;;;;;;11.00;11.00;;;;;;;;5096973;27;45505;-71
2022/03/22 10:55:32;;;;;;;;;11.75;9.00;;;;;;;;5097137;27;46305;-71
2022/03/22 10:57:58;;;;;;;;;9.25;9.25;;;;;;;;5095407;27;45293;-71
2022/03/22 11:00:24;;;;;;;;;9.25;9.00;;;;;;;;5096299;27;47201;-71
2022/03/22 11:02:52;;;;;;;;;8.50;8.50;;;;;;;;5095935;27;45253;-71
2022/03/22 11:05:19;;;;;;;;;12.50;11.25;;;;;;;;5096448;27;46157;-71
2022/03/22 11:07:46;;;;;;;;;10.00;10.00;;;;;;;;5096678;27;45448;-73
2022/03/22 11:10:11;;;;;;;;;10.50;8.75;;;;;;;;5096370;27;45440;-71
2022/03/22 11:12:38;;;;;;;;;14.00;10.75;;;;;;;;5094795;27;45414;-71
2022/03/22 11:15:04;;;;;;;;;10.00;10.00;;;;;;;;5095040;27;45544;-72
2022/03/22 11:17:35;;;;;;;;;9.00;8.25;;;;;;;;5075301;27;45249;-71
2022/03/22 11:20:04;;;;;;;;;13.00;11.00;;;;;;;;5087217;27;45535;-71
2022/03/22 11:22:30;;;;;;;;;8.25;8.00;;;;;;;;5092521;27;45270;-71
2022/03/22 11:25:05;;;;;;;;;9.00;9.00;;;;;;;;5090295;27;46279;-70
2022/03/22 11:27:30;;;;;;;;;10.25;10.25;;;;;;;;5097276;27;45571;-71
2022/03/22 11:29:56;;;;;;;;;10.25;10.25;;;;;;;;5097124;27;45592;-71
2022/03/22 11:35:11;;;;;;;;;9.00;9.00;;;;;;;;5094492;27;45912;-71
2022/03/22 11:37:36;;;;;;;;;9.00;9.00;;;;;;;;5097316;27;45393;-71
2022/03/22 11:42:50;;;;;;;;;9.75;9.50;;;;;;;;5096551;27;45484;-71
2022/03/22 11:45:16;;;;;;;;;10.25;9.00;;;;;;;;5095315;27;45454;-71
2022/03/22 11:47:42;;;;;;;;;10.00;10.00;;;;;;;;5095535;27;45385;-71
2022/03/22 11:50:09;;;;;;;;;10.00;9.75;;;;;;;;5095937;27;45468;-71
2022/03/22 11:52:43;;;;;;;;;12.00;9.25;;;;;;;;5097453;27;45366;-71
2022/03/22 11:55:11;;;;;;;;;8.75;8.75;;;;;;;;5095036;27;46067;-71
2022/03/22 11:57:42;;;;;;;;;9.50;9.50;;;;;;;;5093215;27;45472;-71
2022/03/22 12:00:08;;;;;;;;;11.50;10.25;;;;;;;;5095066;27;45434;-71
2022/03/22 12:02:37;;;;;;;;;13.00;9.50;;;;;;;;5094957;27;45342;-71
2022/03/22 12:05:02;;;;;;;;;9.75;9.75;;;;;;;;5096515;27;46153;-71
2022/03/22 12:07:30;;;;;;;;;12.00;10.25;;;;;;;;5095823;27;45447;-71
2022/03/22 12:10:08;;;;;;;;;10.50;9.50;;;;;;;;5094632;27;45551;-71
2022/03/22 12:12:35;;;;;;;;;10.75;9.00;;;;;;;;5092648;27;45318;-71
2022/03/22 12:15:02;;;;;;;;;9.50;9.00;;;;;;;;5094695;27;46949;-71
2022/03/22 12:17:28;;;;;;;;;13.75;10.00;;;;;;;;5079040;27;50851;-71
2022/03/22 12:19:56;;;;;;;;;13.25;10.50;;;;;;;;5096645;27;45289;-71
2022/03/22 12:22:22;;;;;;;;;9.00;9.00;;;;;;;;5095194;27;45358;-71
2022/03/22 12:24:49;;;;;;;;;9.50;8.50;;;;;;;;5094445;27;45925;-71
2022/03/22 12:27:15;;;;;;;;;10.25;10.25;;;;;;;;5094587;27;45347;-71
2022/03/22 12:29:44;;;;;;;;;9.00;9.00;;;;;;;;5093611;27;45393;-71
2022/03/22 12:32:21;;;;;;;;;11.00;10.50;;;;;;;;5094994;27;45315;-73
2022/03/22 12:34:47;;;;;;;;;11.25;10.00;;;;;;;;5096113;27;46385;-73
2022/03/22 12:37:13;;;;;;;;;9.75;8.00;;;;;;;;5092324;27;45327;-73
2022/03/22 12:39:41;;;;;;;;;13.25;12.25;;;;;;;;5094288;27;45454;-73
2022/03/22 12:42:06;;;;;;;;;14.00;13.00;;;;;;;;5092298;27;45270;-71
2022/03/22 12:44:32;;;;;;;;;11.75;10.50;;;;;;;;5093859;27;46508;-71
2022/03/22 12:46:58;;;;;;;;;10.00;10.00;;;;;;;;5096746;27;45359;-71
2022/03/22 12:49:25;;;;;;;;;10.00;10.00;;;;;;;;5092572;27;45284;-71
2022/03/22 12:51:50;;;;;;;;;9.00;9.00;;;;;;;;5094396;27;45457;-71
2022/03/22 12:54:18;;;;;;;;;11.50;11.00;;;;;;;;5094015;27;46958;-71
2022/03/22 12:56:46;;;;;;;;;10.50;9.50;;;;;;;;5094392;27;45438;-71
2022/03/22 12:59:37;;;;;;;;;12.00;11.00;;;;;;;;5095141;27;46055;-74
2022/03/22 13:02:06;;;;;;;;;10.50;9.50;;;;;;;;5087637;27;45342;-71
2022/03/22 13:04:34;;;;;;;;;14.50;10.75;;;;;;;;5094965;27;45456;-71
2022/03/22 13:07:00;;;;;;;;;11.75;11.25;;;;;;;;5094004;27;45386;-71
2022/03/22 13:12:14;;;;;;;;;11.00;10.75;;;;;;;;5091261;27;45270;-71
2022/03/22 13:17:23;;;;;;;;;11.50;11.50;;;;;;;;5093644;27;45344;-70
2022/03/22 13:19:48;;;;;;;;;10.50;10.50;;;;;;;;5096140;27;45357;-70
2022/03/22 13:22:17;;;;;;;;;11.75;9.00;;;;;;;;5094080;27;45414;-71
2022/03/22 13:24:42;;;;;;;;;14.25;10.75;;;;;;;;5092282;27;46203;-71
2022/03/22 13:27:08;;;;;;;;;11.00;11.00;;;;;;;;5093712;27;45468;-70
2022/03/22 13:29:38;;;;;;;;;14.00;13.50;;;;;;;;5091258;27;45478;-70
2022/03/22 13:32:05;;;;;;;;;9.00;8.25;;;;;;;;5095036;27;45501;-70
2022/03/22 13:34:31;;;;;;;;;11.00;9.00;;;;;;;;5092197;27;47523;-71
2022/03/22 13:37:04;;;;;;;;;11.50;11.50;;;;;;;;5093381;27;45431;-71
2022/03/22 13:39:29;;;;;;;;;10.25;10.25;;;;;;;;5093633;27;45417;-71
2022/03/22 13:42:23;;;;;;;;;13.25;11.50;;;;;;;;5095361;27;45862;-71
2022/03/22 13:44:50;;;;;;;;;12.00;9.50;;;;;;;;5059444;27;46358;-71
2022/03/22 13:47:25;;;;;;;;;14.50;11.50;;;;;;;;5094416;27;45470;-70
2022/03/22 13:49:50;;;;;;;;;11.75;10.50;;;;;;;;5095679;27;45314;-71
2022/03/22 13:52:23;;;;;;;;;10.75;10.75;;;;;;;;5091699;27;46002;-70
2022/03/22 13:54:50;;;;;;;;;12.50;11.25;;;;;;;;5093116;27;47243;-71
2022/03/22 13:57:15;;;;;;;;;11.50;10.75;;;;;;;;5093696;27;45223;-71
2022/03/22 13:59:41;;;;;;;;;10.50;9.00;;;;;;;;5097235;27;45488;-71
2022/03/22 14:02:07;;;;;;;;;14.75;13.75;;;;;;;;5097687;27;45562;-71
2022/03/22 14:04:34;;;;;;;;;10.00;10.00;;;;;;;;5098314;27;46125;-71
2022/03/22 14:07:00;;;;;;;;;11.00;11.00;;;;;;;;5096835;27;45267;-70
2022/03/22 14:09:25;;;;;;;;;10.00;10.00;;;;;;;;5094613;27;45386;-70
2022/03/22 14:11:50;;;;;;;;;12.25;12.00;;;;;;;;5095242;27;45444;-70
2022/03/22 14:14:16;;;;;;;;;13.00;12.25;;;;;;;;5078795;27;48433;-71
2022/03/22 14:16:41;;;;;;;;;14.00;11.75;;;;;;;;5088185;27;45347;-70
2022/03/22 14:19:10;;;;;;;;;11.50;11.00;;;;;;;;5093536;27;45256;-70
2022/03/22 14:21:35;;;;;;;;;10.75;10.50;;;;;;;;5096781;27;45302;-70
2022/03/22 14:24:01;;;;;;;;;10.25;10.25;;;;;;;;5096457;27;45525;-70
2022/03/22 14:26:26;;;;;;;;;15.00;12.00;;;;;;;;5096397;27;45299;-73
2022/03/22 14:28:51;;;;;;;;;10.00;10.00;;;;;;;;5099049;27;45264;-73
2022/03/22 14:31:16;;;;;;;;;13.25;12.25;;;;;;;;5097162;27;45471;-73
2022/03/22 14:33:42;;;;;;;;;13.25;11.00;;;;;;;;5096394;27;45336;-72
2022/03/22 14:36:08;;;;;;;;;16.25;12.50;;;;;;;;5096389;27;45497;-73
2022/03/22 14:38:34;;;;;;;;;14.00;13.00;;;;;;;;5095362;27;45787;-73
2022/03/22 14:41:01;;;;;;;;;10.75;10.75;;;;;;;;5098295;27;46137;-73
2022/03/22 14:43:26;;;;;;;;;11.75;11.75;;;;;;;;5094910;27;46078;-73
2022/03/22 14:45:52;;;;;;;;;10.75;10.75;;;;;;;;5093432;27;47295;-73
2022/03/22 14:48:23;;;;;;;;;12.00;10.75;;;;;;;;5094017;27;45359;-73
2022/03/22 14:50:49;;;;;;;;;11.25;11.25;;;;;;;;5094676;27;45299;-71
2022/03/22 14:58:53;;;;;;;;;12.75;12.00;;;;;;;;5097373;27;45339;-73
2022/03/22 15:01:19;;;;;;;;;12.75;11.00;;;;;;;;5093689;27;45344;-72
2022/03/22 15:03:44;;;;;;;;;17.50;13.00;;;;;;;;5095774;27;45566;-72